Flughafen Sylt

Aus VATSIM Germany
Version vom 15. Mai 2020, 14:17 Uhr von VATSIM Germany (Diskussion | Beiträge) (Die Seite wurde neu angelegt: „{{Baustelle}} {{Flughafen |ICAO=EDXW }} Kategorie:RG Bremen“)

(Unterschied) ← Nächstältere Version | Bestätigte Version (Unterschied) | Aktuelle Version (Unterschied) | Nächstjüngere Version → (Unterschied)
Wechseln zu:Navigation, Suche
UnderCon icon.svg.pngDieser Artikel ist noch im Aufbau. Der Artikel kann daher unvollständig sein oder Fehler enthalten!


Westerland Sylt Airport
ICAO / IATA EDXW / GWT
Koordinaten N54°54′48″  E008°20′26″
Höhe 16 m / 51 ft
Wetter EDXW 190450Z AUTO 19008KT 9000 // FEW010/// BKN025/// 13/12 Q1015
Pisten
Platzfrequenzen
Nur für Flugsimulationszwecke!



Informationen für Piloten und Lotsen
Pilotenbriefing

Standard Operating Procedures (SOP)

Letters of Agreement (LoAs)

Airport Charts